sensor_id;sensor_type;location;lat;lon;timestamp;temperature;humidity
45685;DHT22;46836;48.388;16.210;2024-01-06T00:00:26;3.70;99.90
45685;DHT22;46836;48.388;16.210;2024-01-06T00:02:53;3.80;99.90
45685;DHT22;46836;48.388;16.210;2024-01-06T00:05:20;3.90;99.90
45685;DHT22;46836;48.388;16.210;2024-01-06T00:07:47;3.90;99.90
45685;DHT22;46836;48.388;16.210;2024-01-06T00:10:14;3.90;99.90
45685;DHT22;46836;48.388;16.210;2024-01-06T00:12:44;3.90;99.90
45685;DHT22;46836;48.388;16.210;2024-01-06T00:15:11;3.90;99.90
45685;DHT22;46836;48.388;16.210;2024-01-06T00:17:39;3.90;99.90
45685;DHT22;46836;48.388;16.210;2024-01-06T00:20:06;4.00;99.90
45685;DHT22;46836;48.388;16.210;2024-01-06T00:22:34;3.90;99.90
45685;DHT22;46836;48.388;16.210;2024-01-06T00:25:02;3.90;99.90
45685;DHT22;46836;48.388;16.210;2024-01-06T00:27:29;3.80;99.90
45685;DHT22;46836;48.388;16.210;2024-01-06T00:29:56;3.90;99.90
45685;DHT22;46836;48.388;16.210;2024-01-06T00:32:23;3.90;99.90
45685;DHT22;46836;48.388;16.210;2024-01-06T00:34:50;4.00;99.90
45685;DHT22;46836;48.388;16.210;2024-01-06T00:37:17;4.00;99.90
45685;DHT22;46836;48.388;16.210;2024-01-06T00:39:44;4.00;99.90
45685;DHT22;46836;48.388;16.210;2024-01-06T00:42:11;4.10;99.90
45685;DHT22;46836;48.388;16.210;2024-01-06T00:44:39;4.00;99.90
45685;DHT22;46836;48.388;16.210;2024-01-06T00:47:06;4.00;99.90
45685;DHT22;46836;48.388;16.210;2024-01-06T00:49:33;4.00;99.90
45685;DHT22;46836;48.388;16.210;2024-01-06T00:52:01;4.10;99.90
45685;DHT22;46836;48.388;16.210;2024-01-06T00:54:28;4.10;99.90
45685;DHT22;46836;48.388;16.210;2024-01-06T00:56:56;4.20;99.90
45685;DHT22;46836;48.388;16.210;2024-01-06T00:59:24;4.20;99.90
45685;DHT22;46836;48.388;16.210;2024-01-06T01:01:52;4.20;99.90
45685;DHT22;46836;48.388;16.210;2024-01-06T01:04:19;4.10;99.90
45685;DHT22;46836;48.388;16.210;2024-01-06T01:06:46;4.20;99.90
45685;DHT22;46836;48.388;16.210;2024-01-06T01:09:13;4.20;99.90
45685;DHT22;46836;48.388;16.210;2024-01-06T01:11:41;4.20;99.90
45685;DHT22;46836;48.388;16.210;2024-01-06T01:14:09;4.20;99.90
45685;DHT22;46836;48.388;16.210;2024-01-06T01:16:36;4.20;99.90
45685;DHT22;46836;48.388;16.210;2024-01-06T01:19:03;4.20;99.90
45685;DHT22;46836;48.388;16.210;2024-01-06T01:21:30;4.20;99.90
45685;DHT22;46836;48.388;16.210;2024-01-06T01:23:57;4.20;99.90
45685;DHT22;46836;48.388;16.210;2024-01-06T01:26:25;4.30;99.90
45685;DHT22;46836;48.388;16.210;2024-01-06T01:28:52;4.30;99.90
45685;DHT22;46836;48.388;16.210;2024-01-06T01:31:19;4.30;99.90
45685;DHT22;46836;48.388;16.210;2024-01-06T01:33:46;4.40;99.90
45685;DHT22;46836;48.388;16.210;2024-01-06T01:36:14;4.40;99.90
45685;DHT22;46836;48.388;16.210;2024-01-06T01:38:41;4.40;99.90
45685;DHT22;46836;48.388;16.210;2024-01-06T01:41:08;4.40;99.90
45685;DHT22;46836;48.388;16.210;2024-01-06T01:43:35;4.40;99.90
45685;DHT22;46836;48.388;16.210;2024-01-06T01:46:02;4.40;99.90
45685;DHT22;46836;48.388;16.210;2024-01-06T01:48:29;4.40;99.90
45685;DHT22;46836;48.388;16.210;2024-01-06T01:50:57;4.40;99.90
45685;DHT22;46836;48.388;16.210;2024-01-06T01:53:24;4.40;99.90
45685;DHT22;46836;48.388;16.210;2024-01-06T01:55:53;4.50;99.90
45685;DHT22;46836;48.388;16.210;2024-01-06T01:58:20;4.50;99.90
45685;DHT22;46836;48.388;16.210;2024-01-06T02:00:47;4.50;99.90
45685;DHT22;46836;48.388;16.210;2024-01-06T02:03:16;4.50;99.90
45685;DHT22;46836;48.388;16.210;2024-01-06T02:05:43;4.50;99.90
45685;DHT22;46836;48.388;16.210;2024-01-06T02:08:10;4.60;99.90
45685;DHT22;46836;48.388;16.210;2024-01-06T02:10:37;4.60;99.90
45685;DHT22;46836;48.388;16.210;2024-01-06T02:13:09;4.60;99.90
45685;DHT22;46836;48.388;16.210;2024-01-06T02:15:37;4.60;99.90
45685;DHT22;46836;48.388;16.210;2024-01-06T02:18:04;4.60;99.90
45685;DHT22;46836;48.388;16.210;2024-01-06T02:20:32;4.60;99.90
45685;DHT22;46836;48.388;16.210;2024-01-06T02:22:59;4.60;99.90
45685;DHT22;46836;48.388;16.210;2024-01-06T02:25:27;4.60;99.90
45685;DHT22;46836;48.388;16.210;2024-01-06T02:27:56;4.50;99.90
45685;DHT22;46836;48.388;16.210;2024-01-06T02:30:23;4.50;99.90
45685;DHT22;46836;48.388;16.210;2024-01-06T02:32:51;4.50;99.90
45685;DHT22;46836;48.388;16.210;2024-01-06T02:35:18;4.50;99.90
45685;DHT22;46836;48.388;16.210;2024-01-06T02:37:45;4.50;99.90
45685;DHT22;46836;48.388;16.210;2024-01-06T02:40:13;4.50;99.90
45685;DHT22;46836;48.388;16.210;2024-01-06T02:42:41;4.50;99.90
45685;DHT22;46836;48.388;16.210;2024-01-06T02:45:08;4.50;99.90
45685;DHT22;46836;48.388;16.210;2024-01-06T02:47:37;4.50;99.90
45685;DHT22;46836;48.388;16.210;2024-01-06T02:50:05;4.50;99.90
45685;DHT22;46836;48.388;16.210;2024-01-06T02:52:32;4.50;99.90
45685;DHT22;46836;48.388;16.210;2024-01-06T02:54:59;4.40;99.90
45685;DHT22;46836;48.388;16.210;2024-01-06T02:57:31;4.50;99.90
45685;DHT22;46836;48.388;16.210;2024-01-06T02:59:58;4.50;99.90
45685;DHT22;46836;48.388;16.210;2024-01-06T03:02:26;4.50;99.90
45685;DHT22;46836;48.388;16.210;2024-01-06T03:04:53;4.50;99.90
45685;DHT22;46836;48.388;16.210;2024-01-06T03:07:20;4.50;99.90
45685;DHT22;46836;48.388;16.210;2024-01-06T03:09:47;4.50;99.90
45685;DHT22;46836;48.388;16.210;2024-01-06T03:12:14;4.40;99.90
45685;DHT22;46836;48.388;16.210;2024-01-06T03:14:41;4.40;99.90
45685;DHT22;46836;48.388;16.210;2024-01-06T03:17:08;4.40;99.90
45685;DHT22;46836;48.388;16.210;2024-01-06T03:19:38;4.40;99.90
45685;DHT22;46836;48.388;16.210;2024-01-06T03:22:05;4.50;99.90
45685;DHT22;46836;48.388;16.210;2024-01-06T03:24:32;4.50;99.90
45685;DHT22;46836;48.388;16.210;2024-01-06T03:26:59;4.50;99.90
45685;DHT22;46836;48.388;16.210;2024-01-06T03:29:26;4.50;99.90
45685;DHT22;46836;48.388;16.210;2024-01-06T03:31:53;4.50;99.90
45685;DHT22;46836;48.388;16.210;2024-01-06T03:34:21;4.50;99.90
45685;DHT22;46836;48.388;16.210;2024-01-06T03:36:48;4.50;99.90
45685;DHT22;46836;48.388;16.210;2024-01-06T03:39:15;4.50;99.90
45685;DHT22;46836;48.388;16.210;2024-01-06T03:41:42;4.50;99.90
45685;DHT22;46836;48.388;16.210;2024-01-06T03:44:09;4.50;99.90
45685;DHT22;46836;48.388;16.210;2024-01-06T03:46:37;4.50;99.90
45685;DHT22;46836;48.388;16.210;2024-01-06T03:49:04;4.40;99.90
45685;DHT22;46836;48.388;16.210;2024-01-06T03:51:31;4.40;99.90
45685;DHT22;46836;48.388;16.210;2024-01-06T03:53:58;4.40;99.90
45685;DHT22;46836;48.388;16.210;2024-01-06T03:56:25;4.40;99.90
45685;DHT22;46836;48.388;16.210;2024-01-06T03:58:53;4.40;99.90
45685;DHT22;46836;48.388;16.210;2024-01-06T04:01:20;4.40;99.90
45685;DHT22;46836;48.388;16.210;2024-01-06T04:03:48;4.50;99.90
45685;DHT22;46836;48.388;16.210;2024-01-06T04:06:15;4.50;99.90
45685;DHT22;46836;48.388;16.210;2024-01-06T04:08:42;4.50;99.90
45685;DHT22;46836;48.388;16.210;2024-01-06T04:11:09;4.50;99.90
45685;DHT22;46836;48.388;16.210;2024-01-06T04:13:36;4.50;99.90
45685;DHT22;46836;48.388;16.210;2024-01-06T04:16:04;4.50;99.90
45685;DHT22;46836;48.388;16.210;2024-01-06T04:18:32;4.50;99.90
45685;DHT22;46836;48.388;16.210;2024-01-06T04:20:59;4.60;99.90
45685;DHT22;46836;48.388;16.210;2024-01-06T04:23:27;4.60;99.90
45685;DHT22;46836;48.388;16.210;2024-01-06T04:25:54;4.60;99.90
45685;DHT22;46836;48.388;16.210;2024-01-06T04:28:21;4.60;99.90
45685;DHT22;46836;48.388;16.210;2024-01-06T04:30:49;4.50;99.90
45685;DHT22;46836;48.388;16.210;2024-01-06T04:33:16;4.60;99.90
45685;DHT22;46836;48.388;16.210;2024-01-06T04:35:44;4.60;99.90
45685;DHT22;46836;48.388;16.210;2024-01-06T04:38:11;4.60;99.90
45685;DHT22;46836;48.388;16.210;2024-01-06T04:40:38;4.60;99.90
45685;DHT22;46836;48.388;16.210;2024-01-06T04:43:05;4.70;99.90
45685;DHT22;46836;48.388;16.210;2024-01-06T04:45:32;4.60;99.90
45685;DHT22;46836;48.388;16.210;2024-01-06T04:47:59;4.60;99.90
45685;DHT22;46836;48.388;16.210;2024-01-06T04:50:26;4.60;99.90
45685;DHT22;46836;48.388;16.210;2024-01-06T04:52:53;4.70;99.90
45685;DHT22;46836;48.388;16.210;2024-01-06T04:55:20;4.70;99.90
45685;DHT22;46836;48.388;16.210;2024-01-06T04:57:49;4.70;99.90
45685;DHT22;46836;48.388;16.210;2024-01-06T05:00:16;4.70;99.90
45685;DHT22;46836;48.388;16.210;2024-01-06T05:02:44;4.70;99.90
45685;DHT22;46836;48.388;16.210;2024-01-06T05:05:11;4.70;99.90
45685;DHT22;46836;48.388;16.210;2024-01-06T05:07:38;4.70;99.90
45685;DHT22;46836;48.388;16.210;2024-01-06T05:10:06;4.80;99.90
45685;DHT22;46836;48.388;16.210;2024-01-06T05:12:33;4.80;99.90
45685;DHT22;46836;48.388;16.210;2024-01-06T05:15:00;4.80;99.90
45685;DHT22;46836;48.388;16.210;2024-01-06T05:17:27;4.80;99.90
45685;DHT22;46836;48.388;16.210;2024-01-06T05:19:55;4.80;99.90
45685;DHT22;46836;48.388;16.210;2024-01-06T05:22:22;4.80;99.90
45685;DHT22;46836;48.388;16.210;2024-01-06T05:24:49;4.90;99.90
45685;DHT22;46836;48.388;16.210;2024-01-06T05:27:20;4.90;99.90
45685;DHT22;46836;48.388;16.210;2024-01-06T05:29:47;4.90;99.90
45685;DHT22;46836;48.388;16.210;2024-01-06T05:32:16;4.90;99.90
45685;DHT22;46836;48.388;16.210;2024-01-06T05:34:45;4.90;99.90
45685;DHT22;46836;48.388;16.210;2024-01-06T05:37:12;4.90;99.90
45685;DHT22;46836;48.388;16.210;2024-01-06T05:39:39;4.90;99.90
45685;DHT22;46836;48.388;16.210;2024-01-06T05:42:09;4.90;99.90
45685;DHT22;46836;48.388;16.210;2024-01-06T05:44:39;4.90;99.90
45685;DHT22;46836;48.388;16.210;2024-01-06T05:47:07;4.90;99.90
45685;DHT22;46836;48.388;16.210;2024-01-06T05:49:35;4.90;99.90
45685;DHT22;46836;48.388;16.210;2024-01-06T05:52:02;4.90;99.90
45685;DHT22;46836;48.388;16.210;2024-01-06T05:54:30;4.90;99.90
45685;DHT22;46836;48.388;16.210;2024-01-06T05:56:57;4.90;99.90
45685;DHT22;46836;48.388;16.210;2024-01-06T05:59:24;4.80;99.90
45685;DHT22;46836;48.388;16.210;2024-01-06T06:01:51;4.80;99.90
45685;DHT22;46836;48.388;16.210;2024-01-06T06:04:19;4.80;99.90
45685;DHT22;46836;48.388;16.210;2024-01-06T06:06:46;4.80;99.90
45685;DHT22;46836;48.388;16.210;2024-01-06T06:09:13;4.80;99.90
45685;DHT22;46836;48.388;16.210;2024-01-06T06:11:40;4.80;99.90
45685;DHT22;46836;48.388;16.210;2024-01-06T06:14:07;4.80;99.90
45685;DHT22;46836;48.388;16.210;2024-01-06T06:16:34;4.80;99.90
45685;DHT22;46836;48.388;16.210;2024-01-06T06:19:01;4.90;99.90
45685;DHT22;46836;48.388;16.210;2024-01-06T06:21:30;4.80;99.90
45685;DHT22;46836;48.388;16.210;2024-01-06T06:23:57;4.80;99.90
45685;DHT22;46836;48.388;16.210;2024-01-06T06:26:24;4.80;99.90
45685;DHT22;46836;48.388;16.210;2024-01-06T06:28:51;4.90;99.90
45685;DHT22;46836;48.388;16.210;2024-01-06T06:31:18;4.80;99.90
45685;DHT22;46836;48.388;16.210;2024-01-06T06:33:46;4.90;99.90
45685;DHT22;46836;48.388;16.210;2024-01-06T06:36:13;4.90;99.90
45685;DHT22;46836;48.388;16.210;2024-01-06T06:38:40;4.90;99.90
45685;DHT22;46836;48.388;16.210;2024-01-06T06:41:07;4.90;99.90
45685;DHT22;46836;48.388;16.210;2024-01-06T06:43:34;4.90;99.90
45685;DHT22;46836;48.388;16.210;2024-01-06T06:46:01;4.90;99.90
45685;DHT22;46836;48.388;16.210;2024-01-06T06:48:29;4.90;99.90
45685;DHT22;46836;48.388;16.210;2024-01-06T06:50:56;4.80;99.90
45685;DHT22;46836;48.388;16.210;2024-01-06T06:53:23;4.90;99.90
45685;DHT22;46836;48.388;16.210;2024-01-06T06:55:50;4.80;99.90
45685;DHT22;46836;48.388;16.210;2024-01-06T06:58:17;4.90;99.90
45685;DHT22;46836;48.388;16.210;2024-01-06T07:00:44;4.90;99.90
45685;DHT22;46836;48.388;16.210;2024-01-06T07:03:11;4.90;99.90
45685;DHT22;46836;48.388;16.210;2024-01-06T07:05:38;4.90;99.90
45685;DHT22;46836;48.388;16.210;2024-01-06T07:08:06;4.90;99.90
45685;DHT22;46836;48.388;16.210;2024-01-06T07:10:33;4.90;99.90
45685;DHT22;46836;48.388;16.210;2024-01-06T07:13:00;4.90;99.90
45685;DHT22;46836;48.388;16.210;2024-01-06T07:15:27;4.90;99.90
45685;DHT22;46836;48.388;16.210;2024-01-06T07:17:54;4.90;99.90
45685;DHT22;46836;48.388;16.210;2024-01-06T07:20:21;4.90;99.90
45685;DHT22;46836;48.388;16.210;2024-01-06T07:22:48;4.90;99.90
45685;DHT22;46836;48.388;16.210;2024-01-06T07:25:15;4.90;99.90
45685;DHT22;46836;48.388;16.210;2024-01-06T07:27:42;4.90;99.90
45685;DHT22;46836;48.388;16.210;2024-01-06T07:30:10;4.90;99.90
45685;DHT22;46836;48.388;16.210;2024-01-06T07:32:37;4.90;99.90
45685;DHT22;46836;48.388;16.210;2024-01-06T07:35:04;5.00;99.90
45685;DHT22;46836;48.388;16.210;2024-01-06T07:37:34;5.00;99.90
45685;DHT22;46836;48.388;16.210;2024-01-06T07:40:01;5.00;99.90
45685;DHT22;46836;48.388;16.210;2024-01-06T07:42:28;5.00;99.90
45685;DHT22;46836;48.388;16.210;2024-01-06T07:44:56;5.00;99.90
45685;DHT22;46836;48.388;16.210;2024-01-06T07:47:23;5.00;99.90
45685;DHT22;46836;48.388;16.210;2024-01-06T07:49:51;5.10;99.90
45685;DHT22;46836;48.388;16.210;2024-01-06T07:52:20;5.10;99.90
45685;DHT22;46836;48.388;16.210;2024-01-06T07:54:47;5.10;99.90
45685;DHT22;46836;48.388;16.210;2024-01-06T07:57:15;5.10;99.90
45685;DHT22;46836;48.388;16.210;2024-01-06T07:59:43;5.10;99.90
45685;DHT22;46836;48.388;16.210;2024-01-06T08:02:10;5.10;99.90
45685;DHT22;46836;48.388;16.210;2024-01-06T08:04:37;5.10;99.90
45685;DHT22;46836;48.388;16.210;2024-01-06T08:07:04;5.10;99.90
45685;DHT22;46836;48.388;16.210;2024-01-06T08:09:31;5.10;99.90
45685;DHT22;46836;48.388;16.210;2024-01-06T08:11:58;5.10;99.90
45685;DHT22;46836;48.388;16.210;2024-01-06T08:14:25;5.20;99.90
45685;DHT22;46836;48.388;16.210;2024-01-06T08:16:52;5.20;99.90
45685;DHT22;46836;48.388;16.210;2024-01-06T08:19:19;5.20;99.90
45685;DHT22;46836;48.388;16.210;2024-01-06T08:21:48;5.20;99.90
45685;DHT22;46836;48.388;16.210;2024-01-06T08:24:15;5.20;99.90
45685;DHT22;46836;48.388;16.210;2024-01-06T08:26:42;5.20;99.90
45685;DHT22;46836;48.388;16.210;2024-01-06T08:29:09;5.20;99.90
45685;DHT22;46836;48.388;16.210;2024-01-06T08:31:36;5.20;99.90
45685;DHT22;46836;48.388;16.210;2024-01-06T08:34:04;5.30;99.90
45685;DHT22;46836;48.388;16.210;2024-01-06T08:36:34;5.30;99.90
45685;DHT22;46836;48.388;16.210;2024-01-06T08:39:01;5.30;99.90
45685;DHT22;46836;48.388;16.210;2024-01-06T08:41:28;5.30;99.90
45685;DHT22;46836;48.388;16.210;2024-01-06T08:43:55;5.30;99.90
45685;DHT22;46836;48.388;16.210;2024-01-06T08:46:22;5.30;99.90
45685;DHT22;46836;48.388;16.210;2024-01-06T08:48:49;5.30;99.90
45685;DHT22;46836;48.388;16.210;2024-01-06T08:51:16;5.40;99.90
45685;DHT22;46836;48.388;16.210;2024-01-06T08:53:43;5.40;99.90
45685;DHT22;46836;48.388;16.210;2024-01-06T08:56:10;5.40;99.90
45685;DHT22;46836;48.388;16.210;2024-01-06T08:58:38;5.40;99.90
45685;DHT22;46836;48.388;16.210;2024-01-06T09:01:05;5.40;99.90
45685;DHT22;46836;48.388;16.210;2024-01-06T09:03:32;5.40;99.90
45685;DHT22;46836;48.388;16.210;2024-01-06T09:05:59;5.40;99.90
45685;DHT22;46836;48.388;16.210;2024-01-06T09:08:27;5.40;99.90
45685;DHT22;46836;48.388;16.210;2024-01-06T09:10:55;5.50;99.90
45685;DHT22;46836;48.388;16.210;2024-01-06T09:13:24;5.50;99.90
45685;DHT22;46836;48.388;16.210;2024-01-06T09:15:52;5.50;99.90
45685;DHT22;46836;48.388;16.210;2024-01-06T09:18:19;5.50;99.90
45685;DHT22;46836;48.388;16.210;2024-01-06T09:20:46;5.50;99.90
45685;DHT22;46836;48.388;16.210;2024-01-06T09:23:16;5.50;99.90
45685;DHT22;46836;48.388;16.210;2024-01-06T09:25:44;5.50;99.90
45685;DHT22;46836;48.388;16.210;2024-01-06T09:28:11;5.50;99.90
45685;DHT22;46836;48.388;16.210;2024-01-06T09:30:38;5.50;99.90
45685;DHT22;46836;48.388;16.210;2024-01-06T09:33:06;5.50;99.90
45685;DHT22;46836;48.388;16.210;2024-01-06T09:35:35;5.50;99.90
45685;DHT22;46836;48.388;16.210;2024-01-06T09:38:02;5.50;99.90
45685;DHT22;46836;48.388;16.210;2024-01-06T09:40:31;5.50;99.90
45685;DHT22;46836;48.388;16.210;2024-01-06T09:42:58;5.50;99.90
45685;DHT22;46836;48.388;16.210;2024-01-06T09:45:26;5.50;99.90
45685;DHT22;46836;48.388;16.210;2024-01-06T09:47:54;5.60;99.90
45685;DHT22;46836;48.388;16.210;2024-01-06T09:50:22;5.60;99.90
45685;DHT22;46836;48.388;16.210;2024-01-06T09:52:49;5.60;99.90
45685;DHT22;46836;48.388;16.210;2024-01-06T09:55:26;5.70;99.90
45685;DHT22;46836;48.388;16.210;2024-01-06T09:57:53;5.70;99.90
45685;DHT22;46836;48.388;16.210;2024-01-06T10:00:21;5.60;99.90
45685;DHT22;46836;48.388;16.210;2024-01-06T10:02:49;5.70;99.90
45685;DHT22;46836;48.388;16.210;2024-01-06T10:05:18;5.70;99.90
45685;DHT22;46836;48.388;16.210;2024-01-06T10:07:45;5.70;99.90
45685;DHT22;46836;48.388;16.210;2024-01-06T10:10:13;5.70;99.90
45685;DHT22;46836;48.388;16.210;2024-01-06T10:12:41;5.70;99.90
45685;DHT22;46836;48.388;16.210;2024-01-06T10:15:10;5.70;99.90
45685;DHT22;46836;48.388;16.210;2024-01-06T10:17:40;5.70;99.90
45685;DHT22;46836;48.388;16.210;2024-01-06T10:20:12;5.70;99.90
45685;DHT22;46836;48.388;16.210;2024-01-06T10:22:41;5.70;99.90
45685;DHT22;46836;48.388;16.210;2024-01-06T10:25:10;5.80;99.90
45685;DHT22;46836;48.388;16.210;2024-01-06T10:27:38;5.80;99.90
45685;DHT22;46836;48.388;16.210;2024-01-06T10:30:07;5.80;99.90
45685;DHT22;46836;48.388;16.210;2024-01-06T10:32:35;5.80;99.90
45685;DHT22;46836;48.388;16.210;2024-01-06T10:35:04;5.80;99.90
45685;DHT22;46836;48.388;16.210;2024-01-06T10:37:33;5.80;99.90
45685;DHT22;46836;48.388;16.210;2024-01-06T10:40:12;5.80;99.90
45685;DHT22;46836;48.388;16.210;2024-01-06T10:42:40;5.80;99.90
45685;DHT22;46836;48.388;16.210;2024-01-06T10:45:13;5.80;99.90
45685;DHT22;46836;48.388;16.210;2024-01-06T10:47:42;5.90;99.90
45685;DHT22;46836;48.388;16.210;2024-01-06T10:50:10;5.90;99.90
45685;DHT22;46836;48.388;16.210;2024-01-06T10:52:38;5.90;99.90
45685;DHT22;46836;48.388;16.210;2024-01-06T10:55:06;5.90;99.90
45685;DHT22;46836;48.388;16.210;2024-01-06T10:57:34;6.00;99.90
45685;DHT22;46836;48.388;16.210;2024-01-06T11:00:04;6.10;99.90
45685;DHT22;46836;48.388;16.210;2024-01-06T11:02:32;6.10;99.90
45685;DHT22;46836;48.388;16.210;2024-01-06T11:05:01;6.10;99.90
45685;DHT22;46836;48.388;16.210;2024-01-06T11:07:28;6.20;99.90
45685;DHT22;46836;48.388;16.210;2024-01-06T11:10:06;6.20;99.90
45685;DHT22;46836;48.388;16.210;2024-01-06T11:12:36;6.20;99.90
45685;DHT22;46836;48.388;16.210;2024-01-06T11:15:04;6.20;99.90
45685;DHT22;46836;48.388;16.210;2024-01-06T11:17:53;6.20;99.90
45685;DHT22;46836;48.388;16.210;2024-01-06T11:20:23;6.20;99.90
45685;DHT22;46836;48.388;16.210;2024-01-06T11:22:51;6.20;99.90
45685;DHT22;46836;48.388;16.210;2024-01-06T11:25:20;6.20;99.90
45685;DHT22;46836;48.388;16.210;2024-01-06T11:27:49;6.20;99.90
45685;DHT22;46836;48.388;16.210;2024-01-06T11:30:26;6.20;99.90
45685;DHT22;46836;48.388;16.210;2024-01-06T11:32:58;6.20;99.90
45685;DHT22;46836;48.388;16.210;2024-01-06T11:35:28;6.20;99.90
45685;DHT22;46836;48.388;16.210;2024-01-06T11:38:07;6.30;99.90
45685;DHT22;46836;48.388;16.210;2024-01-06T11:40:35;6.30;99.90
45685;DHT22;46836;48.388;16.210;2024-01-06T11:43:10;6.30;99.90
45685;DHT22;46836;48.388;16.210;2024-01-06T11:45:42;6.30;99.90
45685;DHT22;46836;48.388;16.210;2024-01-06T11:48:11;6.30;99.90
45685;DHT22;46836;48.388;16.210;2024-01-06T11:50:41;6.40;99.90
45685;DHT22;46836;48.388;16.210;2024-01-06T11:53:09;6.30;99.90
45685;DHT22;46836;48.388;16.210;2024-01-06T11:55:39;6.30;99.90
45685;DHT22;46836;48.388;16.210;2024-01-06T11:58:06;6.40;99.90
45685;DHT22;46836;48.388;16.210;2024-01-06T12:00:34;6.40;99.90
45685;DHT22;46836;48.388;16.210;2024-01-06T12:03:08;6.50;99.90
45685;DHT22;46836;48.388;16.210;2024-01-06T12:05:35;6.40;99.90
45685;DHT22;46836;48.388;16.210;2024-01-06T12:08:03;6.40;99.90
45685;DHT22;46836;48.388;16.210;2024-01-06T12:10:35;6.40;99.90
45685;DHT22;46836;48.388;16.210;2024-01-06T12:13:06;6.40;99.90
45685;DHT22;46836;48.388;16.210;2024-01-06T12:15:36;6.40;99.90
45685;DHT22;46836;48.388;16.210;2024-01-06T12:18:07;6.40;99.90
45685;DHT22;46836;48.388;16.210;2024-01-06T12:20:35;6.40;99.90
45685;DHT22;46836;48.388;16.210;2024-01-06T12:23:02;6.40;99.90
45685;DHT22;46836;48.388;16.210;2024-01-06T12:25:34;6.40;99.90
45685;DHT22;46836;48.388;16.210;2024-01-06T12:28:06;6.40;99.90
45685;DHT22;46836;48.388;16.210;2024-01-06T12:30:35;6.30;99.90
45685;DHT22;46836;48.388;16.210;2024-01-06T12:33:03;6.30;99.90
45685;DHT22;46836;48.388;16.210;2024-01-06T12:35:31;6.30;99.90
45685;DHT22;46836;48.388;16.210;2024-01-06T12:37:58;6.30;99.90
45685;DHT22;46836;48.388;16.210;2024-01-06T12:40:25;6.30;99.90
45685;DHT22;46836;48.388;16.210;2024-01-06T12:42:53;6.30;99.90
45685;DHT22;46836;48.388;16.210;2024-01-06T12:45:20;6.30;99.90
45685;DHT22;46836;48.388;16.210;2024-01-06T12:47:47;6.30;99.90
45685;DHT22;46836;48.388;16.210;2024-01-06T12:50:14;6.30;99.90
45685;DHT22;46836;48.388;16.210;2024-01-06T12:52:41;6.30;99.90
45685;DHT22;46836;48.388;16.210;2024-01-06T12:55:09;6.30;99.90
45685;DHT22;46836;48.388;16.210;2024-01-06T12:57:36;6.20;99.90
45685;DHT22;46836;48.388;16.210;2024-01-06T13:00:04;6.20;99.90
45685;DHT22;46836;48.388;16.210;2024-01-06T13:02:34;6.20;99.90
45685;DHT22;46836;48.388;16.210;2024-01-06T13:05:01;6.20;99.90
45685;DHT22;46836;48.388;16.210;2024-01-06T13:07:28;6.20;99.90
45685;DHT22;46836;48.388;16.210;2024-01-06T13:09:56;6.20;99.90
45685;DHT22;46836;48.388;16.210;2024-01-06T13:12:23;6.20;99.90
45685;DHT22;46836;48.388;16.210;2024-01-06T13:14:51;6.20;99.90
45685;DHT22;46836;48.388;16.210;2024-01-06T13:17:18;6.30;99.90
45685;DHT22;46836;48.388;16.210;2024-01-06T13:19:45;6.30;99.90
45685;DHT22;46836;48.388;16.210;2024-01-06T13:22:13;6.30;99.90
45685;DHT22;46836;48.388;16.210;2024-01-06T13:24:41;6.30;99.90
45685;DHT22;46836;48.388;16.210;2024-01-06T13:27:08;6.30;99.90
45685;DHT22;46836;48.388;16.210;2024-01-06T13:29:36;6.30;99.90
45685;DHT22;46836;48.388;16.210;2024-01-06T13:32:03;6.20;99.90
45685;DHT22;46836;48.388;16.210;2024-01-06T13:34:31;6.20;99.90
45685;DHT22;46836;48.388;16.210;2024-01-06T13:36:59;6.20;99.90
45685;DHT22;46836;48.388;16.210;2024-01-06T13:39:26;6.20;99.90
45685;DHT22;46836;48.388;16.210;2024-01-06T13:41:53;6.20;99.90
45685;DHT22;46836;48.388;16.210;2024-01-06T13:44:20;6.20;99.90
45685;DHT22;46836;48.388;16.210;2024-01-06T13:46:49;6.20;99.90
45685;DHT22;46836;48.388;16.210;2024-01-06T13:49:17;6.20;99.90
45685;DHT22;46836;48.388;16.210;2024-01-06T13:51:45;6.20;99.90
45685;DHT22;46836;48.388;16.210;2024-01-06T13:54:13;6.20;99.90
45685;DHT22;46836;48.388;16.210;2024-01-06T13:56:44;6.20;99.90
45685;DHT22;46836;48.388;16.210;2024-01-06T13:59:11;6.20;99.90
45685;DHT22;46836;48.388;16.210;2024-01-06T14:01:38;6.20;99.90
45685;DHT22;46836;48.388;16.210;2024-01-06T14:04:06;6.20;99.90
45685;DHT22;46836;48.388;16.210;2024-01-06T14:06:34;6.20;99.90
45685;DHT22;46836;48.388;16.210;2024-01-06T14:09:01;6.20;99.90
45685;DHT22;46836;48.388;16.210;2024-01-06T14:11:29;6.20;99.90
45685;DHT22;46836;48.388;16.210;2024-01-06T14:13:58;6.20;99.90
45685;DHT22;46836;48.388;16.210;2024-01-06T14:16:25;6.20;99.90
45685;DHT22;46836;48.388;16.210;2024-01-06T14:18:52;6.20;99.90
45685;DHT22;46836;48.388;16.210;2024-01-06T14:21:19;6.20;99.90
45685;DHT22;46836;48.388;16.210;2024-01-06T14:23:47;6.20;99.90
45685;DHT22;46836;48.388;16.210;2024-01-06T14:26:17;6.20;99.90
45685;DHT22;46836;48.388;16.210;2024-01-06T14:28:47;6.20;99.90
45685;DHT22;46836;48.388;16.210;2024-01-06T14:31:15;6.20;99.90
45685;DHT22;46836;48.388;16.210;2024-01-06T14:33:43;6.20;99.90
45685;DHT22;46836;48.388;16.210;2024-01-06T14:36:11;6.20;99.90
45685;DHT22;46836;48.388;16.210;2024-01-06T14:38:38;6.20;99.90
45685;DHT22;46836;48.388;16.210;2024-01-06T14:41:05;6.20;99.90
45685;DHT22;46836;48.388;16.210;2024-01-06T14:43:32;6.20;99.90
45685;DHT22;46836;48.388;16.210;2024-01-06T14:45:59;6.20;99.90
45685;DHT22;46836;48.388;16.210;2024-01-06T14:48:27;6.20;99.90
45685;DHT22;46836;48.388;16.210;2024-01-06T14:50:54;6.20;99.90
45685;DHT22;46836;48.388;16.210;2024-01-06T14:53:21;6.30;99.90
45685;DHT22;46836;48.388;16.210;2024-01-06T14:55:48;6.20;99.90
45685;DHT22;46836;48.388;16.210;2024-01-06T14:58:15;6.30;99.90
45685;DHT22;46836;48.388;16.210;2024-01-06T15:00:42;6.30;99.90
45685;DHT22;46836;48.388;16.210;2024-01-06T15:03:10;6.30;99.90
45685;DHT22;46836;48.388;16.210;2024-01-06T15:05:37;6.30;99.90
45685;DHT22;46836;48.388;16.210;2024-01-06T15:08:05;6.30;99.90
45685;DHT22;46836;48.388;16.210;2024-01-06T15:10:32;6.30;99.90
45685;DHT22;46836;48.388;16.210;2024-01-06T15:13:00;6.30;99.90
45685;DHT22;46836;48.388;16.210;2024-01-06T15:15:27;6.30;99.90
45685;DHT22;46836;48.388;16.210;2024-01-06T15:17:54;6.40;99.90
45685;DHT22;46836;48.388;16.210;2024-01-06T15:20:22;6.30;99.90
45685;DHT22;46836;48.388;16.210;2024-01-06T15:22:50;6.30;99.90
45685;DHT22;46836;48.388;16.210;2024-01-06T15:25:17;6.30;99.90
45685;DHT22;46836;48.388;16.210;2024-01-06T15:27:45;6.30;99.90
45685;DHT22;46836;48.388;16.210;2024-01-06T15:30:14;6.30;99.90
45685;DHT22;46836;48.388;16.210;2024-01-06T15:32:44;6.30;99.90